Time;durP1;ratioP1;P1;durP2;ratioP2;P2;SDS_P1;SDS_P2;PMS_P1;PMS_P2;Temp;Humidity;BMP_temperature;BMP_pressure;BME280_temperature;BME280_humidity;BME280_pressure;Samples;Min_cycle;Max_cycle;Signal;HPM_P1;HPM_P2
2020/12/25 00:00:47;;;;;;;10.65;6.22;;;;;;;-2.53;66.06;100989.20;1795799;78;20931;-76
2020/12/25 00:03:17;;;;;;;9.50;6.05;;;;;;;-2.53;65.65;100980.65;1791869;78;21231;-75
2020/12/25 00:05:46;;;;;;;13.48;6.28;;;;;;;-2.54;65.76;100975.92;1795319;77;20966;-74
2020/12/25 00:08:16;;;;;;;9.93;5.90;;;;;;;-2.51;65.46;100991.34;1795193;78;20942;-76
2020/12/25 00:10:44;;;;;;;12.43;6.83;;;;;;;-2.50;65.40;100979.35;1795641;78;21364;-76
2020/12/25 00:13:12;;;;;;;12.40;8.03;;;;;;;-2.50;65.21;100979.35;1795753;78;21029;-76
2020/12/25 00:15:40;;;;;;;12.98;7.12;;;;;;;-2.50;65.28;100969.92;1795484;78;21151;-78
2020/12/25 00:18:08;;;;;;;12.28;6.25;;;;;;;-2.48;65.46;100960.10;1795555;78;21380;-78
2020/12/25 00:20:38;;;;;;;8.48;5.80;;;;;;;-2.47;65.25;100964.37;1793738;78;20903;-75
2020/12/25 00:23:06;;;;;;;12.37;6.92;;;;;;;-2.47;65.30;100954.94;1795765;78;20961;-76
2020/12/25 00:25:34;;;;;;;12.35;6.58;;;;;;;-2.46;65.36;100953.26;1795702;78;20996;-76
2020/12/25 00:28:02;;;;;;;10.68;6.00;;;;;;;-2.45;65.20;100940.83;1795614;78;21892;-76
2020/12/25 00:30:30;;;;;;;11.40;6.53;;;;;;;-2.45;65.15;100934.41;1795529;78;21002;-76
2020/12/25 00:32:58;;;;;;;11.15;6.15;;;;;;;-2.45;65.04;100942.11;1795605;78;21367;-76
2020/12/25 00:35:26;;;;;;;11.38;6.37;;;;;;;-2.45;65.14;100940.39;1795739;78;21096;-76
2020/12/25 00:37:54;;;;;;;13.83;6.75;;;;;;;-2.45;64.92;100935.69;1795621;78;20962;-78
2020/12/25 00:40:22;;;;;;;9.18;5.85;;;;;;;-2.44;64.79;100925.87;1795523;77;22099;-77
2020/12/25 00:42:50;;;;;;;10.70;6.05;;;;;;;-2.44;64.39;100928.00;1795619;78;21443;-76
2020/12/25 00:45:19;;;;;;;9.08;5.85;;;;;;;-2.42;64.53;100927.97;1795637;78;20970;-77
2020/12/25 00:47:46;;;;;;;13.98;6.78;;;;;;;-2.41;64.78;100919.42;1795605;78;20943;-77
2020/12/25 00:50:15;;;;;;;11.55;6.83;;;;;;;-2.41;64.96;100908.72;1795501;78;21013;-76
2020/12/25 00:52:43;;;;;;;10.85;6.03;;;;;;;-2.40;64.90;100907.87;1795709;78;20982;-77
2020/12/25 00:55:12;;;;;;;10.78;6.05;;;;;;;-2.37;64.47;100909.58;1795570;78;21065;-81
2020/12/25 00:57:39;;;;;;;9.03;5.50;;;;;;;-2.40;64.25;100911.73;1795744;78;20986;-76
2020/12/25 01:00:14;;;;;;;13.38;6.58;;;;;;;-2.41;64.25;100908.72;1795286;78;20971;-80
2020/12/25 01:02:42;;;;;;;13.20;5.87;;;;;;;-2.39;64.27;100913.42;1791176;78;20932;-76
2020/12/25 01:05:10;;;;;;;13.83;5.80;;;;;;;-2.41;64.45;100901.02;1795614;78;21152;-79
2020/12/25 01:07:38;;;;;;;8.83;5.50;;;;;;;-2.40;64.47;100892.88;1795635;78;20997;-76
2020/12/25 01:10:08;;;;;;;12.35;6.75;;;;;;;-2.40;64.70;100883.89;1821150;78;20934;-76
2020/12/25 01:12:36;;;;;;;11.25;5.72;;;;;;;-2.38;64.64;100876.63;1795660;78;20950;-78
2020/12/25 01:15:04;;;;;;;12.90;5.42;;;;;;;-2.33;64.66;100868.91;1795513;78;20915;-76
2020/12/25 01:17:32;;;;;;;12.98;6.22;;;;;;;-2.31;64.70;100868.05;1795451;78;21109;-76
2020/12/25 01:20:00;;;;;;;9.28;5.65;;;;;;;-2.27;64.52;100872.72;1787572;79;20986;-76
2020/12/25 01:22:27;;;;;;;11.83;7.22;;;;;;;-2.28;64.38;100872.75;1787606;79;20930;-77
2020/12/25 01:24:55;;;;;;;13.58;6.67;;;;;;;-2.27;64.37;100874.44;1788118;79;20939;-74
2020/12/25 01:27:23;;;;;;;12.47;6.60;;;;;;;-2.28;64.21;100882.58;1790047;79;20964;-76
2020/12/25 01:29:51;;;;;;;15.48;8.78;;;;;;;-2.23;64.09;100885.14;1790595;78;21478;-76
2020/12/25 01:32:19;;;;;;;12.90;5.87;;;;;;;-2.23;64.17;100896.26;1788231;79;21498;-76
2020/12/25 01:34:47;;;;;;;9.43;5.42;;;;;;;-2.22;64.12;100878.72;1788163;79;20943;-74
2020/12/25 01:37:15;;;;;;;11.10;6.85;;;;;;;-2.23;64.05;100874.42;1787546;79;20982;-76
2020/12/25 01:39:43;;;;;;;12.23;7.17;;;;;;;-2.25;63.89;100867.16;1787571;79;20931;-76
2020/12/25 01:42:11;;;;;;;12.05;7.42;;;;;;;-2.24;63.99;100881.72;1787591;79;22192;-77
2020/12/25 01:44:40;;;;;;;13.20;7.35;;;;;;;-2.28;63.93;100887.72;1787529;79;20958;-75
2020/12/25 01:47:07;;;;;;;12.43;6.58;;;;;;;-2.30;63.75;100880.02;1787645;79;20943;-76
2020/12/25 01:49:38;;;;;;;12.93;6.83;;;;;;;-2.32;63.69;100876.59;1787283;79;20994;-77
2020/12/25 01:52:06;;;;;;;12.50;6.30;;;;;;;-2.32;63.81;100866.31;1762363;79;20943;-75
2020/12/25 01:54:34;;;;;;;15.80;7.37;;;;;;;-2.30;63.84;100870.17;1787896;79;22610;-74
2020/12/25 01:57:03;;;;;;;13.13;6.97;;;;;;;-2.28;63.76;100880.02;1787913;77;21442;-75
2020/12/25 01:59:38;;;;;;;11.15;6.30;;;;;;;-2.24;63.90;100869.31;1788183;79;20931;-76
2020/12/25 02:02:06;;;;;;;10.05;5.92;;;;;;;-2.24;63.72;100872.73;1782889;79;21491;-76
2020/12/25 02:04:36;;;;;;;10.53;6.17;;;;;;;-2.25;63.73;100863.73;1785937;79;20911;-75
2020/12/25 02:07:05;;;;;;;12.00;5.72;;;;;;;-2.26;63.95;100853.90;1787835;79;21623;-76
2020/12/25 02:09:33;;;;;;;13.45;6.72;;;;;;;-2.24;64.01;100861.17;1789027;79;21429;-75
2020/12/25 02:12:01;;;;;;;12.55;6.85;;;;;;;-2.22;63.97;100862.42;1790010;79;20938;-75
2020/12/25 02:14:31;;;;;;;12.20;6.05;;;;;;;-2.17;63.96;100861.56;1788925;79;21089;-75
2020/12/25 02:17:00;;;;;;;8.83;5.65;;;;;;;-2.13;63.86;100852.14;1788454;77;21083;-77
2020/12/25 02:19:31;;;;;;;11.40;7.05;;;;;;;-2.14;63.87;100865.39;1793470;78;21447;-76
2020/12/25 02:22:01;;;;;;;10.35;5.97;;;;;;;-2.14;63.81;100861.55;1795778;78;21515;-76
2020/12/25 02:24:30;;;;;;;9.78;5.97;;;;;;;-2.16;63.92;100853.42;1787578;78;21013;-78
2020/12/25 02:26:59;;;;;;;12.18;6.33;;;;;;;-2.12;63.89;100857.25;1795704;78;21037;-75
2020/12/25 02:29:28;;;;;;;14.15;6.78;;;;;;;-2.10;63.92;100850.84;1795644;77;20943;-76
2020/12/25 02:31:56;;;;;;;11.35;6.22;;;;;;;-2.09;63.94;100862.40;1795712;78;21149;-76
2020/12/25 02:34:27;;;;;;;11.18;6.60;;;;;;;-2.09;63.92;100852.53;1796118;78;20962;-76
2020/12/25 02:36:55;;;;;;;12.60;7.22;;;;;;;-2.13;64.05;100836.30;1796133;78;20950;-77
2020/12/25 02:39:23;;;;;;;14.73;7.90;;;;;;;-2.12;64.30;100844.41;1795918;78;20938;-75
2020/12/25 02:41:52;;;;;;;13.08;6.12;;;;;;;-2.11;64.46;100841.44;1796021;78;21384;-76
2020/12/25 02:44:19;;;;;;;10.72;6.55;;;;;;;-2.10;64.53;100847.83;1795943;78;21648;-76
2020/12/25 02:46:49;;;;;;;8.35;5.90;;;;;;;-2.10;64.66;100840.13;1795684;78;21080;-75
2020/12/25 02:49:17;;;;;;;10.23;5.97;;;;;;;-2.11;64.75;100844.84;1795509;78;20951;-75
2020/12/25 02:51:48;;;;;;;11.22;5.95;;;;;;;-2.10;64.96;100827.27;1795216;78;20962;-75
2020/12/25 02:54:15;;;;;;;10.35;5.78;;;;;;;-2.12;65.16;100833.28;1795841;78;20938;-74
2020/12/25 02:56:43;;;;;;;10.55;6.30;;;;;;;-2.16;65.56;100838.01;1795637;77;21901;-74
2020/12/25 02:59:11;;;;;;;10.98;6.22;;;;;;;-2.20;66.00;100832.45;1795638;78;20994;-76
2020/12/25 03:01:39;;;;;;;14.33;7.03;;;;;;;-2.19;66.36;100827.76;1795719;78;21049;-76
2020/12/25 03:04:07;;;;;;;10.75;6.15;;;;;;;-2.18;66.87;100825.59;1795449;78;20907;-73
2020/12/25 03:06:35;;;;;;;11.30;6.90;;;;;;;-2.18;67.08;100826.48;1796047;78;20966;-74
2020/12/25 03:09:03;;;;;;;10.93;6.47;;;;;;;-2.18;67.51;100817.48;1796164;78;21171;-74
2020/12/25 03:11:31;;;;;;;11.57;6.78;;;;;;;-2.17;67.78;100828.17;1795513;78;21017;-74
2020/12/25 03:13:59;;;;;;;14.80;8.08;;;;;;;-2.17;68.42;100819.62;1795541;78;21392;-75
2020/12/25 03:16:27;;;;;;;12.68;7.12;;;;;;;-2.18;69.09;100815.32;1769881;78;20934;-74
2020/12/25 03:18:55;;;;;;;12.85;6.85;;;;;;;-2.17;69.27;100819.18;1793176;79;21302;-75
2020/12/25 03:21:23;;;;;;;12.25;6.28;;;;;;;-2.17;69.53;100812.76;1787834;79;21054;-74
2020/12/25 03:23:52;;;;;;;10.38;6.67;;;;;;;-2.15;70.06;100812.32;1787652;79;20994;-77
2020/12/25 03:26:20;;;;;;;10.53;7.00;;;;;;;-2.12;70.04;100814.86;1788099;79;21149;-75
2020/12/25 03:28:48;;;;;;;10.90;7.47;;;;;;;-2.09;70.30;100806.28;1789279;79;20907;-76
2020/12/25 03:31:16;;;;;;;12.07;6.75;;;;;;;-2.09;70.77;100804.59;1789055;79;20931;-75
2020/12/25 03:33:45;;;;;;;13.08;7.97;;;;;;;-2.06;70.94;100804.16;1789330;78;22144;-76
2020/12/25 03:36:13;;;;;;;15.28;8.55;;;;;;;-2.04;71.21;100799.86;1789585;79;20994;-78
2020/12/25 03:38:42;;;;;;;12.03;7.60;;;;;;;-2.04;71.34;100799.86;1788977;79;21456;-76
2020/12/25 03:41:10;;;;;;;14.55;8.05;;;;;;;-2.04;71.84;100788.30;1788173;79;20991;-76
2020/12/25 03:43:37;;;;;;;13.98;8.60;;;;;;;-2.04;72.09;100781.44;1788033;79;20931;-76
2020/12/25 03:46:06;;;;;;;13.85;8.35;;;;;;;-1.99;72.74;100773.70;1787789;79;21159;-76
2020/12/25 03:48:33;;;;;;;12.73;6.97;;;;;;;-1.97;72.95;100776.68;1787911;79;20990;-76
2020/12/25 03:51:01;;;;;;;13.90;8.10;;;;;;;-1.91;73.35;100778.38;1787750;79;21014;-76
2020/12/25 03:53:29;;;;;;;14.95;8.58;;;;;;;-1.88;73.49;100773.20;1761819;79;21635;-77
2020/12/25 03:55:57;;;;;;;14.80;8.48;;;;;;;-1.83;73.84;100762.89;1817439;78;20923;-77
2020/12/25 03:58:25;;;;;;;14.00;9.08;;;;;;;-1.80;74.03;100769.28;1787694;79;21922;-76
2020/12/25 04:00:52;;;;;;;15.43;8.85;;;;;;;-1.79;74.16;100756.43;1787736;79;21459;-77
2020/12/25 04:03:21;;;;;;;16.55;8.85;;;;;;;-1.77;74.09;100745.70;1787786;79;20958;-76
2020/12/25 04:05:50;;;;;;;16.62;8.20;;;;;;;-1.73;74.16;100756.39;1787607;79;20967;-76
2020/12/25 04:08:18;;;;;;;19.60;11.08;;;;;;;-1.75;74.30;100756.83;1787597;79;20931;-75
2020/12/25 04:10:47;;;;;;;19.62;11.38;;;;;;;-1.77;74.33;100755.14;1817376;77;20925;-78
2020/12/25 04:13:15;;;;;;;16.35;9.13;;;;;;;-1.77;74.29;100741.00;1787687;79;20934;-75
2020/12/25 04:15:43;;;;;;;19.17;10.35;;;;;;;-1.80;74.57;100739.31;1787731;79;21026;-75
2020/12/25 04:18:11;;;;;;;19.37;10.08;;;;;;;-1.78;74.69;100736.71;1787534;79;21554;-75
2020/12/25 04:20:39;;;;;;;20.27;10.30;;;;;;;-1.80;74.99;100729.44;1792793;78;21045;-74
2020/12/25 04:23:07;;;;;;;17.00;10.38;;;;;;;-1.80;75.35;100719.16;1792861;79;20978;-75
2020/12/25 04:25:35;;;;;;;20.12;10.85;;;;;;;-1.79;75.74;100719.59;1792749;79;20954;-75
2020/12/25 04:28:03;;;;;;;17.07;10.68;;;;;;;-1.77;76.08;100741.00;1792782;79;20951;-75
2020/12/25 04:30:31;;;;;;;21.65;12.28;;;;;;;-1.75;75.95;100723.86;1792833;77;21042;-75
2020/12/25 04:32:59;;;;;;;23.60;10.53;;;;;;;-1.77;76.03;100711.00;1792883;79;21076;-76
2020/12/25 04:35:27;;;;;;;20.45;10.78;;;;;;;-1.78;76.32;100715.73;1792833;79;20978;-75
2020/12/25 04:37:56;;;;;;;20.90;11.12;;;;;;;-1.74;76.65;100706.27;1792736;79;20934;-75
2020/12/25 04:40:24;;;;;;;20.15;10.72;;;;;;;-1.70;76.74;100702.38;1792765;79;20920;-75
2020/12/25 04:42:52;;;;;;;16.55;10.50;;;;;;;-1.67;76.45;100695.06;1792666;77;20998;-74
2020/12/25 04:45:21;;;;;;;19.85;11.95;;;;;;;-1.64;76.53;100689.91;1767489;79;21500;-76
2020/12/25 04:47:51;;;;;;;20.77;11.25;;;;;;;-1.62;76.64;100701.03;1782746;79;21255;-76
2020/12/25 04:50:19;;;;;;;18.65;10.78;;;;;;;-1.60;76.68;100673.59;1792842;79;21063;-75
2020/12/25 04:52:49;;;;;;;16.75;11.33;;;;;;;-1.56;76.83;100694.53;1792827;79;20927;-77
2020/12/25 04:55:17;;;;;;;17.95;11.10;;;;;;;-1.53;76.60;100690.67;1792967;79;21491;-76
2020/12/25 04:57:45;;;;;;;16.75;10.63;;;;;;;-1.53;76.85;100694.97;1793980;77;21027;-74
2020/12/25 05:00:19;;;;;;;16.75;10.10;;;;;;;-1.51;76.79;100688.94;1770599;79;21143;-73
2020/12/25 05:02:50;;;;;;;14.98;9.05;;;;;;;-1.53;76.72;100671.37;1794511;79;20947;-75
2020/12/25 05:05:31;;;;;;;18.12;10.58;;;;;;;-1.54;76.81;100667.53;1793149;79;20946;-75
2020/12/25 05:08:01;;;;;;;17.52;9.80;;;;;;;-1.53;77.00;100667.96;1785833;79;21037;-75
2020/12/25 05:10:28;;;;;;;12.95;9.25;;;;;;;-1.48;77.15;100677.77;1792867;79;20935;-75
2020/12/25 05:12:57;;;;;;;15.70;9.70;;;;;;;-1.48;77.40;100661.05;1792759;79;20985;-75
2020/12/25 05:15:25;;;;;;;18.62;11.22;;;;;;;-1.46;77.43;100660.16;1792592;79;20954;-75
2020/12/25 05:17:56;;;;;;;15.75;9.73;;;;;;;-1.44;77.18;100647.30;1792846;79;20954;-75
2020/12/25 05:20:26;;;;;;;15.80;10.35;;;;;;;-1.47;77.33;100634.45;1792514;79;21120;-74
2020/12/25 05:23:11;;;;;;;16.17;9.13;;;;;;;-1.45;77.42;100646.86;1752790;79;20938;-76
2020/12/25 05:25:40;;;;;;;16.82;9.93;;;;;;;-1.41;77.41;100629.25;1792834;79;21163;-73
2020/12/25 05:28:13;;;;;;;13.62;9.43;;;;;;;-1.40;77.31;100653.23;1792638;77;21029;-74
2020/12/25 05:30:44;;;;;;;13.60;9.03;;;;;;;-1.40;77.30;100628.39;1792751;79;21021;-75
2020/12/25 05:33:12;;;;;;;13.78;9.10;;;;;;;-1.39;77.58;100642.95;1752541;79;21535;-75
2020/12/25 05:35:41;;;;;;;14.65;8.40;;;;;;;-1.37;77.66;100635.22;1742932;79;21384;-75
2020/12/25 05:38:10;;;;;;;16.95;9.28;;;;;;;-1.37;77.59;100629.64;1767161;79;21167;-75
2020/12/25 05:40:42;;;;;;;14.70;9.68;;;;;;;-1.38;77.85;100629.23;1792721;79;20966;-75
2020/12/25 05:43:16;;;;;;;;;;;;;;;-1.35;78.05;100629.19;1795504;78;20998;-78
2020/12/25 05:45:45;;;;;;;14.25;8.88;;;;;;;-1.31;78.12;100628.73;1792960;79;20654;-78
2020/12/25 05:48:13;;;;;;;17.40;9.48;;;;;;;-1.29;78.15;100625.27;1793187;79;21030;-77
2020/12/25 05:50:42;;;;;;;18.02;10.13;;;;;;;-1.26;78.29;100626.51;1793061;79;21030;-77
2020/12/25 05:53:11;;;;;;;15.08;9.60;;;;;;;-1.24;78.33;100622.64;1792772;79;21002;-75
2020/12/25 05:55:39;;;;;;;16.97;10.15;;;;;;;-1.22;78.40;100615.77;1792782;79;20939;-78
2020/12/25 05:58:07;;;;;;;14.55;9.73;;;;;;;-1.16;78.44;100623.83;1792779;79;20951;-77
2020/12/25 06:00:36;;;;;;;18.02;11.18;;;;;;;-1.13;78.41;100609.66;1741033;79;20931;-77
2020/12/25 06:03:04;;;;;;;19.67;10.75;;;;;;;-1.11;78.53;100601.05;1792765;79;21174;-76
2020/12/25 06:05:34;;;;;;;16.67;9.45;;;;;;;-1.11;78.74;100598.88;1818152;79;21459;-76
2020/12/25 06:08:02;;;;;;;13.25;8.25;;;;;;;-1.09;78.93;100607.44;1792799;79;21388;-77
2020/12/25 06:10:30;;;;;;;14.80;8.98;;;;;;;-1.05;78.97;100611.23;1792617;79;20998;-76
2020/12/25 06:12:58;;;;;;;11.97;7.58;;;;;;;-1.02;79.09;100609.50;1792783;79;20950;-77
2020/12/25 06:15:31;;;;;;;11.05;7.55;;;;;;;-0.98;79.26;100617.16;1792760;79;22797;-77
2020/12/25 06:18:37;;;;;;;12.05;7.55;;;;;;;-0.96;79.08;100607.70;1792793;79;21495;-75
2020/12/25 06:21:15;;;;;;;11.70;7.83;;;;;;;-0.92;79.13;100595.20;1787680;79;20919;-76
2020/12/25 06:23:43;;;;;;;9.83;7.03;;;;;;;-0.90;78.98;100592.63;1787725;79;20974;-76
2020/12/25 06:26:12;;;;;;;12.10;8.10;;;;;;;-0.88;79.17;100579.30;1787776;79;21499;-75
2020/12/25 06:28:41;;;;;;;12.55;7.78;;;;;;;-0.86;79.25;100583.55;1787579;79;21244;-76
2020/12/25 06:31:29;;;;;;;11.25;6.58;;;;;;;-0.80;79.37;100580.47;1787428;77;20998;-77
2020/12/25 06:33:57;;;;;;;10.58;7.15;;;;;;;-0.79;79.23;100577.88;1766000;79;20931;-75
2020/12/25 06:36:31;;;;;;;11.73;7.65;;;;;;;-0.77;79.40;100569.70;1787451;77;20935;-78
2020/12/25 06:39:05;;;;;;;13.68;8.70;;;;;;;-0.74;79.35;100572.66;1787651;79;21420;-79
2020/12/25 06:41:34;;;;;;;11.53;7.85;;;;;;;-0.73;79.42;100575.23;1787803;79;21158;-78
2020/12/25 06:44:08;;;;;;;10.65;7.17;;;;;;;-0.71;79.58;100572.61;1787685;79;21507;-79
2020/12/25 06:46:37;;;;;;;10.67;7.47;;;;;;;-0.66;79.65;100581.98;1788615;79;21324;-84
2020/12/25 06:49:06;;;;;;;14.03;8.00;;;;;;;-0.63;79.71;100582.37;1788320;79;21160;-81
2020/12/25 06:51:45;;;;;;;11.40;7.58;;;;;;;-0.58;79.84;100583.14;1763164;79;20931;-83
2020/12/25 06:54:20;;;;;;;11.70;7.78;;;;;;;-0.52;79.81;100579.20;1787814;79;21217;-83
2020/12/25 06:56:54;;;;;;;10.70;6.80;;;;;;;-0.51;79.62;100564.17;1788035;79;20966;-82
2020/12/25 06:59:23;;;;;;;8.13;5.80;;;;;;;-0.50;79.67;100568.44;1787837;79;21002;-81
2020/12/25 07:01:54;;;;;;;12.07;6.78;;;;;;;-0.49;79.80;100566.29;1787892;79;21040;-85
2020/12/25 07:04:30;;;;;;;10.55;6.53;;;;;;;-0.50;79.88;100554.72;1817779;79;21400;-81
2020/12/25 07:07:07;;;;;;;9.10;6.45;;;;;;;-0.47;80.08;100550.79;1787777;79;21741;-83
2020/12/25 07:09:47;;;;;;;8.50;6.42;;;;;;;-0.49;80.13;100534.50;1787737;79;20911;-83
2020/12/25 07:12:19;;;;;;;9.55;6.12;;;;;;;-0.45;80.16;100542.60;1789096;79;21392;-82
2020/12/25 07:14:48;;;;;;;6.12;4.92;;;;;;;-0.40;80.23;100539.95;1782750;79;20947;-81
2020/12/25 07:17:18;;;;;;;8.43;5.30;;;;;;;-0.39;80.20;100532.20;1787727;79;20938;-79
2020/12/25 07:19:48;;;;;;;7.87;5.45;;;;;;;-0.37;80.32;100523.17;1787722;79;21163;-80
2020/12/25 07:22:16;;;;;;;8.10;6.25;;;;;;;-0.29;80.28;100529.03;1782455;79;20943;-82
2020/12/25 07:24:44;;;;;;;8.33;5.85;;;;;;;-0.28;80.31;100520.00;1762618;79;21443;-80
2020/12/25 07:27:14;;;;;;;7.58;5.08;;;;;;;-0.26;80.50;100529.00;1787782;79;20966;-80
2020/12/25 07:29:44;;;;;;;7.65;5.87;;;;;;;-0.22;80.46;100521.63;1787634;79;21010;-78
2020/12/25 07:32:13;;;;;;;6.25;5.03;;;;;;;-0.19;80.58;100526.72;1787701;79;21978;-79
2020/12/25 07:34:41;;;;;;;7.45;5.67;;;;;;;-0.16;80.50;100524.08;1787605;79;21037;-80
2020/12/25 07:37:14;;;;;;;8.63;6.50;;;;;;;-0.17;80.47;100530.12;1787679;79;21041;-79
2020/12/25 07:39:39;;;;;;;6.33;5.37;;;;;;;-0.14;80.66;100523.61;1787209;79;21037;-76
2020/12/25 07:42:08;;;;;;;7.92;5.67;;;;;;;-0.08;80.59;100522.67;1787707;79;20927;-81
2020/12/25 07:44:36;;;;;;;7.53;5.25;;;;;;;-0.05;80.58;100523.45;1787481;79;22145;-81
2020/12/25 07:47:08;;;;;;;8.13;6.30;;;;;;;-0.01;80.60;100534.56;1787514;79;20954;-79
2020/12/25 07:49:39;;;;;;;8.73;5.70;;;;;;;0.01;80.73;100517.79;1787678;79;20915;-78
2020/12/25 07:52:14;;;;;;;8.80;6.15;;;;;;;0.04;80.74;100519.02;1787697;79;20970;-79
2020/12/25 07:54:45;;;;;;;6.30;5.12;;;;;;;0.11;80.65;100505.13;1787602;79;21439;-78
2020/12/25 07:57:18;;;;;;;7.17;5.15;;;;;;;0.15;80.64;100506.77;1817667;79;20942;-77
2020/12/25 07:59:46;;;;;;;8.40;5.95;;;;;;;0.18;80.70;100484.81;1762343;79;20963;-81
2020/12/25 08:02:15;;;;;;;8.93;5.50;;;;;;;0.21;80.80;100493.77;1787894;79;20907;-78
2020/12/25 08:04:49;;;;;;;6.75;4.97;;;;;;;0.26;80.84;100490.65;1787678;79;20975;-78
2020/12/25 08:07:17;;;;;;;9.08;5.37;;;;;;;0.31;80.81;100483.69;1788228;79;20915;-78
2020/12/25 08:09:46;;;;;;;6.28;5.12;;;;;;;0.37;80.91;100477.55;1787586;79;21213;-78
2020/12/25 08:12:16;;;;;;;7.47;5.55;;;;;;;0.39;81.00;100476.63;1787530;79;21081;-79
2020/12/25 08:14:44;;;;;;;8.90;6.15;;;;;;;0.42;81.07;100464.10;1762744;79;21404;-77
2020/12/25 08:17:12;;;;;;;6.67;5.12;;;;;;;0.46;81.19;100472.64;1787512;79;20974;-77
2020/12/25 08:19:49;;;;;;;6.20;4.42;;;;;;;0.49;81.29;100466.11;1787637;79;21054;-79
2020/12/25 08:27:20;;;;;;;11.83;7.55;;;;;;;0.56;81.57;100465.97;1812781;78;21026;-77
2020/12/25 08:29:51;;;;;;;7.10;5.22;;;;;;;0.60;81.96;100467.61;1787882;79;20935;-78
2020/12/25 08:32:21;;;;;;;7.78;5.85;;;;;;;0.65;81.97;100457.19;1789916;79;20939;-78
2020/12/25 08:35:07;;;;;;;6.72;5.35;;;;;;;0.69;82.12;100469.14;1769087;80;21501;-77
2020/12/25 08:37:35;;;;;;;;;;;;;;;0.73;82.27;100464.30;1801310;78;22108;-76
2020/12/25 08:40:16;;;;;;;7.45;5.47;;;;;;;0.78;82.30;100464.22;1777886;80;20105;-78
2020/12/25 08:42:45;;;;;;;11.83;7.50;;;;;;;0.81;82.38;100460.27;1798269;78;20960;-77
2020/12/25 08:45:19;;;;;;;13.32;7.72;;;;;;;0.85;82.46;100466.22;1798150;78;21559;-77
2020/12/25 08:48:10;;;;;;;10.93;7.45;;;;;;;0.91;82.42;100453.16;1798207;78;20948;-80
2020/12/25 08:50:41;;;;;;;8.88;6.35;;;;;;;0.95;82.66;100462.53;1797809;78;22394;-76
2020/12/25 08:53:11;;;;;;;12.28;7.45;;;;;;;1.01;82.95;100453.36;1798253;78;20979;-79
2020/12/25 08:55:39;;;;;;;10.58;7.90;;;;;;;1.05;82.84;100442.08;1772561;78;20959;-76
2020/12/25 08:58:11;;;;;;;15.75;10.05;;;;;;;1.10;82.94;100438.09;1798217;78;21070;-81
2020/12/25 09:00:42;;;;;;;16.30;8.85;;;;;;;1.15;82.93;100440.11;1798041;78;21023;-81
2020/12/25 09:03:13;;;;;;;14.28;9.03;;;;;;;1.18;82.89;100431.02;1798475;78;21242;-79
2020/12/25 09:05:41;;;;;;;15.88;10.25;;;;;;;1.21;82.94;100424.48;1798315;78;21031;-83
2020/12/25 09:08:11;;;;;;;14.33;8.18;;;;;;;1.24;82.98;100417.94;1798379;78;20963;-76
2020/12/25 09:10:38;;;;;;;14.63;9.80;;;;;;;1.27;83.16;100423.05;1798049;78;20908;-74
2020/12/25 09:13:06;;;;;;;15.08;9.88;;;;;;;1.32;83.15;100425.51;1798260;78;20964;-73
2020/12/25 09:15:36;;;;;;;15.35;10.05;;;;;;;1.30;83.28;100407.45;1798215;78;21221;-84
2020/12/25 09:18:06;;;;;;;18.50;12.18;;;;;;;1.40;83.29;100415.81;1825639;78;20940;-77
2020/12/25 09:20:42;;;;;;;14.93;10.05;;;;;;;1.43;83.27;100415.75;1795456;78;20952;-78
2020/12/25 09:23:15;;;;;;;17.05;9.95;;;;;;;1.48;83.13;100437.59;1787880;78;21008;-79
2020/12/25 09:25:45;;;;;;;15.72;11.05;;;;;;;1.50;83.11;100422.45;1790739;78;20992;-86
2020/12/25 09:28:17;;;;;;;14.95;10.35;;;;;;;1.53;83.19;100424.10;1790672;78;20978;-78
2020/12/25 09:30:45;;;;;;;15.95;10.55;;;;;;;1.55;83.20;100423.17;1790523;78;20929;-77
2020/12/25 09:33:13;;;;;;;16.97;11.88;;;;;;;1.60;83.13;100416.16;1790618;78;21397;-80
2020/12/25 09:35:41;;;;;;;18.25;11.85;;;;;;;1.62;83.07;100415.69;1790606;78;21031;-83
2020/12/25 09:38:20;;;;;;;22.77;13.62;;;;;;;1.64;83.04;100411.29;1790739;78;21123;-85
2020/12/25 09:40:54;;;;;;;21.17;12.70;;;;;;;1.70;82.88;100419.34;1791140;78;21462;-80
2020/12/25 09:43:28;;;;;;;18.27;11.18;;;;;;;1.73;82.88;100417.11;1791136;78;21453;-85
2020/12/25 09:45:59;;;;;;;13.18;9.43;;;;;;;1.75;82.82;100417.92;1791269;78;20964;-77
2020/12/25 09:51:25;;;;;;;14.05;9.38;;;;;;;1.85;83.02;100422.81;1775752;79;22357;-84
2020/12/25 09:54:05;;;;;;;12.18;8.18;;;;;;;1.83;82.87;100409.07;1744938;82;21027;-82
2020/12/25 09:56:38;;;;;;;10.25;6.90;;;;;;;1.90;83.01;100411.50;1720159;82;21489;-82
2020/12/25 09:59:17;;;;;;;10.32;5.67;;;;;;;1.92;82.87;100400.67;1749947;80;20963;-83
2020/12/25 10:01:50;;;;;;;9.43;4.95;;;;;;;1.93;82.86;100405.77;1720582;82;20962;-84
2020/12/25 10:04:19;;;;;;;5.72;5.00;;;;;;;1.96;82.95;100404.88;1720374;80;21496;-84
2020/12/25 10:08:41;;;;;;;6.10;4.85;;;;;;;2.04;82.94;100398.56;1890649;75;22545;-84
2020/12/25 10:11:32;;;;;;;4.85;4.33;;;;;;;2.01;82.80;100406.87;1861821;76;21325;-87
2020/12/25 10:14:05;;;;;;;5.67;4.83;;;;;;;2.05;82.79;100382.63;1828434;77;22058;-87
2020/12/25 10:16:38;;;;;;;8.98;5.58;;;;;;;2.06;82.73;100381.72;1857896;77;21041;-85
2020/12/25 10:19:13;;;;;;;;;;;;;;;2.06;82.75;100379.97;1830728;77;20927;-88
2020/12/25 10:22:01;;;;;;;9.48;6.53;;;;;;;2.08;82.96;100369.59;1854637;77;20450;-86
2020/12/25 10:24:29;;;;;;;10.03;6.33;;;;;;;2.12;83.07;100364.73;1828538;77;21352;-89
2020/12/25 10:27:02;;;;;;;7.10;5.78;;;;;;;2.14;83.08;100370.71;1861887;76;22151;-90
2020/12/25 10:29:37;;;;;;;9.45;5.40;;;;;;;2.17;83.08;100361.55;1827946;77;20958;-87
2020/12/25 10:32:40;;;;;;;6.92;5.40;;;;;;;2.19;83.06;100367.98;1830800;77;20993;-86
2020/12/25 10:35:09;;;;;;;8.58;6.03;;;;;;;2.21;83.12;100363.16;1829855;77;21554;-81
2020/12/25 10:37:40;;;;;;;9.45;5.22;;;;;;;2.21;83.08;100352.81;1830930;77;20935;-85
2020/12/25 10:40:12;;;;;;;6.65;4.92;;;;;;;2.23;83.16;100354.92;1825882;77;21368;-84
2020/12/25 10:42:48;;;;;;;7.87;5.25;;;;;;;2.26;83.19;100358.69;1827992;77;21005;-81
2020/12/25 10:45:38;;;;;;;8.20;5.15;;;;;;;2.26;83.34;100359.98;1829218;77;20918;-86
2020/12/25 10:48:13;;;;;;;8.63;4.87;;;;;;;2.30;83.25;100365.92;1828377;77;21348;-81
2020/12/25 10:50:40;;;;;;;7.33;5.08;;;;;;;2.34;83.15;100361.06;1828110;76;20946;-85
2020/12/25 10:53:19;;;;;;;8.30;5.30;;;;;;;2.36;83.24;100369.63;1828071;77;20987;-83
2020/12/25 10:55:53;;;;;;;8.33;5.75;;;;;;;2.40;83.25;100375.12;1828176;77;20986;-89
2020/12/25 10:58:25;;;;;;;8.10;6.58;;;;;;;2.42;83.19;100366.87;1828012;77;20954;-83
2020/12/25 11:01:01;;;;;;;11.00;7.17;;;;;;;2.43;83.18;100359.94;1826932;77;21005;-80
2020/12/25 11:03:29;;;;;;;6.12;5.30;;;;;;;2.44;83.07;100363.75;1860826;77;20902;-82
2020/12/25 11:05:57;;;;;;;4.92;3.70;;;;;;;2.49;83.07;100370.95;1827045;77;20989;-78
2020/12/25 11:08:27;;;;;;;7.92;5.85;;;;;;;2.49;83.21;100358.02;1860608;76;20998;-82
2020/12/25 11:10:59;;;;;;;7.25;5.67;;;;;;;2.52;83.28;100351.89;1800883;76;21057;-84
2020/12/25 11:13:29;;;;;;;8.53;5.93;;;;;;;2.54;83.30;100353.98;1827776;77;20937;-76
2020/12/25 11:16:03;;;;;;;8.58;5.58;;;;;;;2.57;83.41;100344.81;1827497;77;20910;-77
2020/12/25 11:18:35;;;;;;;7.58;5.87;;;;;;;2.59;83.40;100340.89;1860411;77;21356;-77
2020/12/25 11:21:03;;;;;;;8.35;6.50;;;;;;;2.59;83.43;100336.56;1826648;77;20931;-77
2020/12/25 11:23:35;;;;;;;8.60;6.15;;;;;;;2.62;83.48;100327.84;1826981;77;20931;-75
2020/12/25 11:26:04;;;;;;;7.50;5.33;;;;;;;2.62;83.48;100322.25;1826868;77;21044;-77
2020/12/25 11:28:38;;;;;;;8.28;6.95;;;;;;;2.63;83.58;100327.80;1826590;76;20957;-78
2020/12/25 11:31:06;;;;;;;9.73;6.72;;;;;;;2.66;83.66;100330.73;1826710;77;21438;-79
2020/12/25 11:33:35;;;;;;;8.88;6.72;;;;;;;2.67;83.79;100325.52;1800086;77;21449;-78
2020/12/25 11:36:15;;;;;;;14.00;8.20;;;;;;;2.69;83.80;100326.32;1826410;77;21033;-77
2020/12/25 11:38:48;;;;;;;22.98;12.07;;;;;;;2.70;83.76;100325.86;1826620;77;21571;-78
2020/12/25 11:41:26;;;;;;;8.80;5.55;;;;;;;2.74;83.75;100331.80;1859959;77;20966;-80
2020/12/25 11:43:56;;;;;;;8.40;5.75;;;;;;;2.75;83.84;100322.67;1859953;77;21377;-77
2020/12/25 11:46:26;;;;;;;8.38;5.45;;;;;;;2.78;83.90;100321.72;1827184;77;20989;-77